Time;durP1;ratioP1;P1;durP2;ratioP2;P2;SDS_P1;SDS_P2;PMS_P1;PMS_P2;Temp;Humidity;BMP_temperature;BMP_pressure;BME280_temperature;BME280_humidity;BME280_pressure;Samples;Min_cycle;Max_cycle;Signal;HPM_P1;HPM_P2
2023/07/12 00:02:14;;;;;;;;;;;;;;;21.14;67.89;93019.41;2033062;70;20081;-79
2023/07/12 00:04:39;;;;;;;;;;;;;;;21.35;66.57;93032.91;2033038;70;20052;-79
2023/07/12 00:07:07;;;;;;;;;;;;;;;21.23;67.94;93033.25;2036002;70;20052;-79
2023/07/12 00:09:33;;;;;;;;;;;;;;;20.97;69.67;93067.63;2037605;70;20168;-79
2023/07/12 00:11:59;;;;;;;;;;;;;;;21.01;70.09;93076.31;2038913;70;20087;-80
2023/07/12 00:14:24;;;;;;;;;;;;;;;21.27;71.37;93064.88;2038809;70;20084;-80
2023/07/12 00:16:54;;;;;;;;;;;;;;;20.87;69.00;93093.09;2038962;70;20625;-80
2023/07/12 00:19:20;;;;;;;;;;;;;;;20.77;72.53;93113.56;2035534;70;20056;-80
2023/07/12 00:21:47;;;;;;;;;;;;;;;20.95;72.51;93130.53;2038683;70;20611;-81
2023/07/12 00:24:13;;;;;;;;;;;;;;;21.11;69.37;93147.44;2031798;70;20151;-81
2023/07/12 00:26:38;;;;;;;;;;;;;;;20.93;71.99;93141.91;2032699;70;20119;-80
2023/07/12 00:29:05;;;;;;;;;;;;;;;20.36;72.57;93160.19;2034433;70;20064;-80
2023/07/12 00:31:31;;;;;;;;;;;;;;;20.62;71.86;93182.44;2039143;70;20066;-80
2023/07/12 00:33:57;;;;;;;;;;;;;;;20.75;72.76;93161.38;2031579;70;20447;-80
2023/07/12 00:36:24;;;;;;;;;;;;;;;20.94;73.05;93142.66;2031716;70;20067;-81
2023/07/12 00:38:52;;;;;;;;;;;;;;;20.99;71.63;93133.50;2041826;70;20067;-81
2023/07/12 00:41:37;;;;;;;;;;;;;;;20.95;71.40;93099.06;2031901;70;20167;-80
2023/07/12 00:44:05;;;;;;;;;;;;;;;20.64;72.47;93037.38;2034008;70;20504;-80
2023/07/12 00:46:37;;;;;;;;;;;;;;;20.62;69.46;93053.72;2038296;70;20161;-79
2023/07/12 00:49:08;;;;;;;;;;;;;;;20.53;70.90;93022.06;2039522;70;20044;-80
2023/07/12 00:51:43;;;;;;;;;;;;;;;20.63;70.73;93003.72;2038559;70;20063;-79
2023/07/12 00:54:12;;;;;;;;;;;;;;;20.86;69.60;92990.75;2033860;70;20096;-80
2023/07/12 00:56:38;;;;;;;;;;;;;;;20.60;72.43;92994.34;2036217;70;20532;-79
2023/07/12 00:59:10;;;;;;;;;;;;;;;20.56;71.22;92965.63;2035680;70;20052;-79
2023/07/12 01:01:37;;;;;;;;;;;;;;;20.22;71.64;92948.19;2035604;70;20075;-81
2023/07/12 01:04:03;;;;;;;;;;;;;;;20.22;71.92;92986.09;2038253;70;20143;-81
2023/07/12 01:06:29;;;;;;;;;;;;;;;20.39;71.48;92987.31;2039658;70;20060;-81
2023/07/12 01:08:57;;;;;;;;;;;;;;;20.34;73.64;92974.25;2036362;70;20107;-81
2023/07/12 01:11:24;;;;;;;;;;;;;;;20.29;72.17;92939.13;2039649;70;20048;-81
2023/07/12 01:13:50;;;;;;;;;;;;;;;20.59;70.46;92938.53;2036364;70;20443;-80
2023/07/12 01:16:18;;;;;;;;;;;;;;;20.24;71.72;92931.09;2039221;70;20056;-81
2023/07/12 01:18:43;;;;;;;;;;;;;;;20.21;68.76;92930.31;2039708;70;20079;-81
2023/07/12 01:21:14;;;;;;;;;;;;;;;20.48;69.01;92931.81;2036251;70;20525;-81
2023/07/12 01:23:40;;;;;;;;;;;;;;;20.24;70.43;92957.56;2039423;70;20140;-81
2023/07/12 01:26:16;;;;;;;;;;;;;;;20.41;71.39;93004.50;2036241;70;20106;-80
2023/07/12 01:28:43;;;;;;;;;;;;;;;20.24;73.87;93009.00;2036131;70;20048;-81
2023/07/12 01:31:10;;;;;;;;;;;;;;;20.44;73.83;93013.88;2039147;70;20059;-81
2023/07/12 01:33:36;;;;;;;;;;;;;;;20.45;74.63;93030.34;2039203;70;20044;-82
2023/07/12 01:36:01;;;;;;;;;;;;;;;20.50;74.80;93003.38;2039350;70;20055;-81
2023/07/12 01:38:27;;;;;;;;;;;;;;;20.55;71.50;92981.34;2036218;70;20052;-82
2023/07/12 01:40:52;;;;;;;;;;;;;;;20.48;70.51;92999.69;2036353;70;20376;-83
2023/07/12 01:43:19;;;;;;;;;;;;;;;20.59;69.69;93000.75;2039506;70;20111;-83
2023/07/12 01:45:44;;;;;;;;;;;;;;;20.54;68.57;92943.44;2039393;70;20055;-81
2023/07/12 01:48:10;;;;;;;;;;;;;;;20.48;68.04;92977.59;2033289;70;20048;-82
2023/07/12 01:50:35;;;;;;;;;;;;;;;20.48;70.11;93034.78;2039222;70;20091;-83
2023/07/12 01:53:01;;;;;;;;;;;;;;;20.14;72.51;92988.69;2036242;70;20048;-82
2023/07/12 01:55:26;;;;;;;;;;;;;;;20.07;75.35;92932.78;2036334;70;20048;-83
2023/07/12 01:57:52;;;;;;;;;;;;;;;20.25;74.80;92967.59;2036669;70;20486;-82
2023/07/12 02:00:17;;;;;;;;;;;;;;;20.31;74.92;92995.63;2036599;70;20017;-82
2023/07/12 02:02:44;;;;;;;;;;;;;;;20.33;73.71;92989.25;2034046;70;20492;-82
2023/07/12 02:05:10;;;;;;;;;;;;;;;20.27;74.19;92986.94;2036467;70;20055;-82
2023/07/12 02:07:36;;;;;;;;;;;;;;;20.24;73.73;92997.56;2040068;70;20118;-82
2023/07/12 02:10:10;;;;;;;;;;;;;;;20.12;71.76;92999.34;2040014;70;20431;-81
2023/07/12 02:12:36;;;;;;;;;;;;;;;20.21;73.09;92992.47;2039904;70;20513;-81
2023/07/12 02:15:02;;;;;;;;;;;;;;;20.37;73.20;92984.38;2034107;70;20056;-82
2023/07/12 02:17:28;;;;;;;;;;;;;;;20.31;74.34;92978.47;2039847;70;20224;-81
2023/07/12 02:19:54;;;;;;;;;;;;;;;20.33;74.32;92983.53;2039695;70;20180;-82
2023/07/12 02:22:19;;;;;;;;;;;;;;;20.33;72.35;92972.81;2039626;70;20059;-81
2023/07/12 02:24:45;;;;;;;;;;;;;;;20.40;70.38;92974.47;2039200;70;20048;-82
2023/07/12 02:27:10;;;;;;;;;;;;;;;20.51;69.28;92973.34;2039748;70;20563;-82
2023/07/12 02:29:36;;;;;;;;;;;;;;;20.27;70.79;92952.63;2039764;70;20567;-82
2023/07/12 02:32:01;;;;;;;;;;;;;;;19.65;74.63;92955.78;2036557;70;20073;-81
2023/07/12 02:34:27;;;;;;;;;;;;;;;19.58;76.32;92956.97;2036613;70;20052;-82
2023/07/12 02:36:52;;;;;;;;;;;;;;;20.16;74.50;92942.28;2039727;70;20052;-83
2023/07/12 02:39:18;;;;;;;;;;;;;;;20.15;74.79;92927.28;2039643;70;20602;-82
2023/07/12 02:41:43;;;;;;;;;;;;;;;20.19;75.77;92923.81;2033865;70;20548;-82
2023/07/12 02:44:11;;;;;;;;;;;;;;;20.18;74.81;92916.63;2039631;70;20162;-80
2023/07/12 02:46:38;;;;;;;;;;;;;;;20.24;74.82;92916.81;2039616;70;20085;-80
2023/07/12 02:49:04;;;;;;;;;;;;;;;20.14;75.74;92902.22;2039794;70;20044;-81
2023/07/12 02:51:31;;;;;;;;;;;;;;;20.20;75.03;92903.13;2036577;70;20052;-80
2023/07/12 02:53:57;;;;;;;;;;;;;;;19.65;77.58;92898.66;2039001;70;20063;-80
2023/07/12 02:56:23;;;;;;;;;;;;;;;20.13;76.02;92890.06;2036569;70;20048;-80
2023/07/12 02:58:48;;;;;;;;;;;;;;;20.10;76.42;92882.84;2036424;70;20472;-81
2023/07/12 03:01:13;;;;;;;;;;;;;;;19.96;76.24;92876.72;2039592;70;20397;-81
2023/07/12 03:03:39;;;;;;;;;;;;;;;20.12;75.58;92876.47;2036470;70;20542;-80
2023/07/12 03:06:07;;;;;;;;;;;;;;;20.24;74.25;92876.78;2039811;70;20427;-81
2023/07/12 03:08:32;;;;;;;;;;;;;;;20.14;75.44;92873.66;2039460;70;20457;-80
2023/07/12 03:10:59;;;;;;;;;;;;;;;20.23;75.09;92858.91;2039537;70;20083;-80
2023/07/12 03:13:25;;;;;;;;;;;;;;;19.98;75.86;92860.38;2039732;70;20055;-81
2023/07/12 03:15:53;;;;;;;;;;;;;;;19.98;76.44;92863.22;2036531;70;20052;-82
2023/07/12 03:18:19;;;;;;;;;;;;;;;20.11;75.38;92861.44;2036637;70;20134;-82
2023/07/12 03:20:44;;;;;;;;;;;;;;;19.95;76.95;92853.13;2036480;70;20048;-81
2023/07/12 03:23:11;;;;;;;;;;;;;;;19.84;77.12;92851.41;2039788;70;20056;-81
2023/07/12 03:25:36;;;;;;;;;;;;;;;20.01;76.84;92847.59;2039355;70;20055;-79
2023/07/12 03:28:02;;;;;;;;;;;;;;;19.91;75.55;92853.00;2039647;70;20052;-81
2023/07/12 03:30:28;;;;;;;;;;;;;;;19.96;76.18;92848.16;2039718;70;20540;-81
2023/07/12 03:32:54;;;;;;;;;;;;;;;20.08;75.19;92844.91;2039675;70;20146;-80
2023/07/12 03:35:19;;;;;;;;;;;;;;;19.96;76.36;92834.59;2039694;70;20058;-80
2023/07/12 03:37:45;;;;;;;;;;;;;;;19.95;76.59;92833.13;2039578;70;20055;-81
2023/07/12 03:40:11;;;;;;;;;;;;;;;19.88;76.73;92834.34;2036408;70;20492;-81
2023/07/12 03:42:37;;;;;;;;;;;;;;;19.88;75.44;92822.19;2039143;70;20084;-81
2023/07/12 03:45:02;;;;;;;;;;;;;;;19.93;76.23;92813.09;2039334;70;20402;-82
2023/07/12 03:47:28;;;;;;;;;;;;;;;19.85;76.18;92807.16;2039422;70;20048;-81
2023/07/12 03:49:54;;;;;;;;;;;;;;;19.84;76.36;92808.56;2036269;70;20052;-82
2023/07/12 03:52:20;;;;;;;;;;;;;;;19.83;76.19;92807.06;2039429;70;20052;-81
2023/07/12 03:54:45;;;;;;;;;;;;;;;19.83;76.55;92818.50;2036398;70;20206;-81
2023/07/12 03:57:12;;;;;;;;;;;;;;;19.76;76.42;92817.59;2036213;70;20048;-81
2023/07/12 03:59:38;;;;;;;;;;;;;;;19.76;76.56;92826.19;2036271;70;20591;-81
2023/07/12 04:02:03;;;;;;;;;;;;;;;19.69;76.33;92821.69;2039755;70;20155;-82
2023/07/12 04:04:29;;;;;;;;;;;;;;;19.83;75.47;92827.06;2036603;70;20068;-82
2023/07/12 04:06:54;;;;;;;;;;;;;;;19.89;75.74;92829.41;2036429;70;20145;-80
2023/07/12 04:09:20;;;;;;;;;;;;;;;19.65;76.83;92832.25;2039504;70;20080;-81
2023/07/12 04:11:46;;;;;;;;;;;;;;;19.71;75.78;92852.44;2039495;70;20056;-81
2023/07/12 04:14:11;;;;;;;;;;;;;;;19.83;75.00;92852.06;2039401;70;20052;-80
2023/07/12 04:16:37;;;;;;;;;;;;;;;19.83;75.34;92847.06;2039386;70;20143;-81
2023/07/12 04:19:02;;;;;;;;;;;;;;;19.75;75.86;92839.00;2039362;70;20087;-81
2023/07/12 04:21:28;;;;;;;;;;;;;;;19.72;76.58;92837.47;2039345;70;20060;-80
2023/07/12 04:23:53;;;;;;;;;;;;;;;19.79;76.23;92836.28;2039305;70;20048;-81
2023/07/12 04:26:20;;;;;;;;;;;;;;;19.91;75.88;92838.72;2039476;70;20607;-82
2023/07/12 04:28:49;;;;;;;;;;;;;;;19.92;76.13;92830.88;2036021;70;20560;-81
2023/07/12 04:31:16;;;;;;;;;;;;;;;19.80;76.90;92837.00;2038655;70;20668;-81
2023/07/12 04:33:41;;;;;;;;;;;;;;;19.92;77.21;92842.31;2036133;70;20055;-81
2023/07/12 04:36:08;;;;;;;;;;;;;;;20.09;76.21;92838.53;2039350;70;20495;-82
2023/07/12 04:38:34;;;;;;;;;;;;;;;20.19;74.85;92826.63;2039422;70;20063;-81
2023/07/12 04:40:59;;;;;;;;;;;;;;;20.14;74.56;92816.50;2036123;70;20044;-82
2023/07/12 04:43:25;;;;;;;;;;;;;;;20.16;73.19;92813.69;2039206;70;20088;-82
2023/07/12 04:45:55;;;;;;;;;;;;;;;20.10;76.10;92834.25;2039329;70;20048;-82
2023/07/12 04:48:21;;;;;;;;;;;;;;;20.32;75.40;92837.00;2039601;70;20139;-82
2023/07/12 04:50:52;;;;;;;;;;;;;;;20.30;75.51;92854.09;2039728;70;20051;-82
2023/07/12 04:53:17;;;;;;;;;;;;;;;20.38;75.49;92874.31;2036424;70;20048;-81
2023/07/12 04:55:43;;;;;;;;;;;;;;;20.45;74.69;92870.22;2039771;70;20051;-81
2023/07/12 04:58:08;;;;;;;;;;;;;;;20.43;76.20;92872.28;2039744;70;20078;-81
2023/07/12 05:00:34;;;;;;;;;;;;;;;20.46;75.35;92865.97;2039299;70;20050;-82
2023/07/12 05:03:00;;;;;;;;;;;;;;;20.59;73.88;92869.19;2036046;70;20559;-80
2023/07/12 05:05:25;;;;;;;;;;;;;;;20.33;73.37;92855.59;2039499;70;20401;-81
2023/07/12 05:07:52;;;;;;;;;;;;;;;20.49;71.11;92869.66;2039635;70;20116;-82
2023/07/12 05:10:17;;;;;;;;;;;;;;;20.42;75.39;92865.84;2033671;70;20084;-81
2023/07/12 05:12:43;;;;;;;;;;;;;;;20.47;74.29;92860.97;2039537;70;20107;-83
2023/07/12 05:15:09;;;;;;;;;;;;;;;20.42;74.41;92860.13;2039640;70;20138;-80
2023/07/12 05:17:35;;;;;;;;;;;;;;;20.13;75.32;92872.19;2039412;70;20476;-81
2023/07/12 05:20:03;;;;;;;;;;;;;;;20.36;75.85;92857.13;2036004;70;20052;-81
2023/07/12 05:22:29;;;;;;;;;;;;;;;20.45;74.65;92853.06;2039508;70;20110;-83
2023/07/12 05:24:55;;;;;;;;;;;;;;;20.42;72.75;92848.69;2038866;70;20424;-81
2023/07/12 05:27:20;;;;;;;;;;;;;;;20.28;72.06;92863.34;2039480;70;20044;-81
2023/07/12 05:29:46;;;;;;;;;;;;;;;20.50;72.53;92871.09;2038754;70;20048;-82
2023/07/12 05:32:13;;;;;;;;;;;;;;;20.58;72.43;92867.72;2039521;70;20052;-80
2023/07/12 05:34:39;;;;;;;;;;;;;;;20.58;74.34;92888.47;2039726;70;20052;-81
2023/07/12 05:37:05;;;;;;;;;;;;;;;20.52;74.43;92880.44;2036715;70;20055;-80
2023/07/12 05:39:30;;;;;;;;;;;;;;;20.49;76.01;92887.53;2036762;70;20044;-86
2023/07/12 05:41:56;;;;;;;;;;;;;;;20.59;75.51;92878.50;2039948;70;20058;-82
2023/07/12 05:44:22;;;;;;;;;;;;;;;20.68;74.92;92879.44;2039835;70;20040;-82
2023/07/12 05:46:47;;;;;;;;;;;;;;;20.73;75.29;92881.00;2039898;70;20480;-81
2023/07/12 05:49:13;;;;;;;;;;;;;;;20.60;72.28;92893.50;2039720;70;20431;-82
2023/07/12 05:51:39;;;;;;;;;;;;;;;20.74;74.41;92896.75;2039894;70;20072;-82
2023/07/12 05:54:04;;;;;;;;;;;;;;;20.65;75.00;92921.53;2036768;70;20397;-81
2023/07/12 05:56:30;;;;;;;;;;;;;;;20.82;74.63;92922.72;2040097;70;20083;-81
2023/07/12 05:58:55;;;;;;;;;;;;;;;20.86;75.18;92944.97;2036358;70;20056;-82
2023/07/12 06:01:21;;;;;;;;;;;;;;;20.83;74.04;92946.31;2039603;70;20416;-81
2023/07/12 06:03:46;;;;;;;;;;;;;;;20.84;74.85;92957.09;2039614;70;20071;-82
2023/07/12 06:06:13;;;;;;;;;;;;;;;20.65;73.76;92970.16;2036385;70;20059;-81
2023/07/12 06:08:38;;;;;;;;;;;;;;;20.95;73.20;92981.72;2039787;70;20044;-80
2023/07/12 06:11:06;;;;;;;;;;;;;;;20.94;73.60;93002.44;2033888;70;20056;-81
2023/07/12 06:13:33;;;;;;;;;;;;;;;20.78;74.87;92988.41;2039773;70;20086;-81
2023/07/12 06:15:58;;;;;;;;;;;;;;;20.54;72.41;93009.19;2036351;70;20094;-82
2023/07/12 06:18:24;;;;;;;;;;;;;;;20.70;74.17;93040.38;2039880;70;20083;-81
2023/07/12 06:20:54;;;;;;;;;;;;;;;20.85;70.44;93029.34;2039532;70;20059;-82
2023/07/12 06:23:20;;;;;;;;;;;;;;;20.80;74.74;93032.13;2039799;70;20086;-80
2023/07/12 06:25:45;;;;;;;;;;;;;;;20.47;75.17;93038.25;2039868;70;20480;-79
2023/07/12 06:28:11;;;;;;;;;;;;;;;19.83;77.79;93049.88;2036583;70;20224;-80
2023/07/12 06:30:37;;;;;;;;;;;;;;;19.94;78.04;93045.97;2036524;70;20056;-82
2023/07/12 06:33:03;;;;;;;;;;;;;;;20.31;76.68;93058.53;2039777;70;20058;-81
2023/07/12 06:35:30;;;;;;;;;;;;;;;20.33;74.57;93078.59;2039765;70;20179;-81
2023/07/12 06:37:55;;;;;;;;;;;;;;;20.13;75.42;93097.97;2039583;70;20056;-81
2023/07/12 06:40:21;;;;;;;;;;;;;;;20.39;74.77;93107.38;2033794;70;20127;-80
2023/07/12 06:42:47;;;;;;;;;;;;;;;20.39;73.32;93120.94;2039601;70;20136;-81
2023/07/12 06:45:14;;;;;;;;;;;;;;;20.35;73.05;93118.69;2039601;70;20059;-81
2023/07/12 06:47:40;;;;;;;;;;;;;;;19.98;74.24;93119.66;2036462;70;20044;-80
2023/07/12 06:50:06;;;;;;;;;;;;;;;20.11;73.91;93092.19;2039728;70;20151;-80
2023/07/12 06:52:32;;;;;;;;;;;;;;;19.86;74.64;93091.41;2039571;70;20088;-81
2023/07/12 06:54:57;;;;;;;;;;;;;;;19.75;74.19;93098.94;2039608;70;20048;-80
2023/07/12 06:57:23;;;;;;;;;;;;;;;20.13;74.39;93109.41;2036686;70;20064;-81
2023/07/12 06:59:49;;;;;;;;;;;;;;;20.04;74.04;93092.00;2039625;70;20153;-81
2023/07/12 07:02:15;;;;;;;;;;;;;;;19.81;75.33;93081.25;2039769;70;20055;-82
2023/07/12 07:04:40;;;;;;;;;;;;;;;19.98;74.83;93054.66;2039805;70;20048;-83
2023/07/12 07:07:06;;;;;;;;;;;;;;;19.84;75.06;93047.75;2039760;70;20148;-82
2023/07/12 07:09:33;;;;;;;;;;;;;;;19.80;73.42;93039.81;2039484;70;20087;-80
2023/07/12 07:11:59;;;;;;;;;;;;;;;19.87;73.81;93003.59;2039587;70;20207;-80
2023/07/12 07:14:28;;;;;;;;;;;;;;;19.99;73.37;92990.41;2039647;70;20075;-81
2023/07/12 07:16:54;;;;;;;;;;;;;;;19.66;73.97;92965.09;2039701;70;20056;-83
2023/07/12 07:19:19;;;;;;;;;;;;;;;19.49;74.41;92992.38;2039570;70;20075;-79
2023/07/12 07:21:47;;;;;;;;;;;;;;;19.30;75.84;92985.34;2039880;70;20055;-79
2023/07/12 07:24:16;;;;;;;;;;;;;;;19.36;75.52;92965.56;2039622;70;20059;-79
2023/07/12 07:26:42;;;;;;;;;;;;;;;19.50;74.88;92979.56;2036255;70;20111;-81
2023/07/12 07:29:08;;;;;;;;;;;;;;;19.51;74.43;92984.59;2033652;70;20088;-80
2023/07/12 07:31:33;;;;;;;;;;;;;;;19.55;73.88;92984.72;2039702;70;20495;-81
2023/07/12 07:33:59;;;;;;;;;;;;;;;19.63;74.00;92984.28;2039689;70;20122;-80
2023/07/12 07:36:25;;;;;;;;;;;;;;;19.49;74.04;92981.69;2036392;70;20449;-80
2023/07/12 07:38:51;;;;;;;;;;;;;;;19.35;75.69;92983.34;2036494;70;20063;-81
2023/07/12 07:41:16;;;;;;;;;;;;;;;19.62;74.76;92996.38;2036065;70;20061;-83
2023/07/12 07:43:44;;;;;;;;;;;;;;;19.67;75.20;93010.13;2039748;70;20532;-81
2023/07/12 07:46:11;;;;;;;;;;;;;;;19.82;74.77;93002.72;2038927;70;20075;-81
2023/07/12 07:48:38;;;;;;;;;;;;;;;19.90;75.02;93000.13;2036083;70;20052;-82
2023/07/12 07:51:04;;;;;;;;;;;;;;;19.67;73.60;93012.97;2036307;70;20056;-81
2023/07/12 07:53:30;;;;;;;;;;;;;;;19.50;75.79;93010.97;2036256;70;20155;-82
2023/07/12 07:55:55;;;;;;;;;;;;;;;19.33;75.57;93000.38;2033543;70;20147;-82
2023/07/12 07:58:21;;;;;;;;;;;;;;;19.62;76.47;92993.53;2039365;70;20151;-82
2023/07/12 08:00:47;;;;;;;;;;;;;;;20.05;75.80;92987.00;2039555;70;20048;-82
2023/07/12 08:03:12;;;;;;;;;;;;;;;20.20;75.60;92983.16;2039671;70;20095;-82
2023/07/12 08:05:38;;;;;;;;;;;;;;;20.28;75.76;92980.53;2039668;70;20183;-82
2023/07/12 08:08:04;;;;;;;;;;;;;;;20.10;72.87;92980.00;2039858;70;20052;-83
2023/07/12 08:10:30;;;;;;;;;;;;;;;20.43;74.85;92969.50;2039835;70;20138;-82
2023/07/12 08:12:57;;;;;;;;;;;;;;;20.51;76.79;92969.78;2033547;70;20540;-81
2023/07/12 08:15:23;;;;;;;;;;;;;;;20.64;76.11;92970.84;2038670;70;20499;-82
2023/07/12 08:17:49;;;;;;;;;;;;;;;20.95;73.42;92963.81;2039765;70;20052;-83
2023/07/12 08:20:15;;;;;;;;;;;;;;;20.83;73.37;92960.63;2039789;70;20150;-82
2023/07/12 08:22:40;;;;;;;;;;;;;;;21.08;74.03;92964.88;2036433;70;20476;-81
2023/07/12 08:25:08;;;;;;;;;;;;;;;21.43;74.25;92961.47;2039688;70;20059;-81
2023/07/12 08:27:35;;;;;;;;;;;;;;;21.74;73.71;92956.50;2039616;70;20143;-81
2023/07/12 08:30:01;;;;;;;;;;;;;;;21.65;71.69;92940.53;2039224;70;20151;-81
2023/07/12 08:32:27;;;;;;;;;;;;;;;21.42;72.40;92942.13;2036159;70;20096;-82
2023/07/12 08:34:55;;;;;;;;;;;;;;;21.36;71.62;92933.41;2039611;70;20052;-82
2023/07/12 08:37:22;;;;;;;;;;;;;;;21.95;71.81;92909.69;2039579;70;20489;-82
2023/07/12 08:39:48;;;;;;;;;;;;;;;22.68;68.50;92904.00;2039706;70;20051;-82
2023/07/12 08:42:14;;;;;;;;;;;;;;;23.04;67.35;92898.97;2036348;70;20036;-82
2023/07/12 08:44:40;;;;;;;;;;;;;;;23.31;67.06;92896.53;2033349;70;20538;-81
2023/07/12 08:47:11;;;;;;;;;;;;;;;23.50;67.27;92894.69;2039299;70;20151;-81
2023/07/12 08:49:37;;;;;;;;;;;;;;;23.92;67.86;92900.41;2039586;70;20062;-81
2023/07/12 08:52:04;;;;;;;;;;;;;;;24.23;66.94;92895.03;2039685;70;20044;-81
2023/07/12 08:54:33;;;;;;;;;;;;;;;24.10;62.69;92894.16;2036289;70;20075;-81
2023/07/12 08:57:16;;;;;;;;;;;;;;;24.21;62.75;92881.38;2039535;70;20506;-82
2023/07/12 09:00:02;;;;;;;;;;;;;;;23.60;60.32;92883.38;2039325;70;20154;-82
2023/07/12 09:02:27;;;;;;;;;;;;;;;23.47;63.08;92884.59;2039252;70;20091;-82
2023/07/12 09:04:56;;;;;;;;;;;;;;;24.24;61.28;92885.00;2036117;70;20099;-82
2023/07/12 09:07:24;;;;;;;;;;;;;;;24.77;59.91;92871.25;2035903;70;20056;-80
2023/07/12 09:09:50;;;;;;;;;;;;;;;24.91;59.75;92865.63;2036286;70;20162;-80
2023/07/12 09:12:25;;;;;;;;;;;;;;;24.80;58.18;92861.22;2039455;70;20058;-79
2023/07/12 09:14:52;;;;;;;;;;;;;;;25.58;55.41;92863.34;2039273;70;20068;-80
2023/07/12 09:17:22;;;;;;;;;;;;;;;25.91;56.76;92874.41;2039185;70;20094;-81
2023/07/12 09:19:48;;;;;;;;;;;;;;;25.63;54.18;92860.50;2039502;70;20067;-80
2023/07/12 09:22:15;;;;;;;;;;;;;;;26.10;54.58;92853.59;2039394;70;20111;-79
2023/07/12 09:24:43;;;;;;;;;;;;;;;25.83;52.64;92857.78;2039494;70;20048;-80
2023/07/12 09:27:16;;;;;;;;;;;;;;;25.57;53.97;92861.19;2039506;70;20048;-80
2023/07/12 09:29:41;;;;;;;;;;;;;;;26.17;53.24;92850.75;2036126;70;20041;-81
2023/07/12 09:32:28;;;;;;;;;;;;;;;26.86;49.87;92842.38;2036451;70;20165;-80
2023/07/12 09:34:54;;;;;;;;;;;;;;;27.36;48.32;92844.63;2039525;70;20063;-80
2023/07/12 09:37:22;;;;;;;;;;;;;;;28.17;48.42;92842.34;2039503;70;20067;-79
2023/07/12 09:40:14;;;;;;;;;;;;;;;28.45;48.53;92835.78;2035732;70;20052;-81
2023/07/12 09:42:40;;;;;;;;;;;;;;;28.38;48.75;92837.97;2039256;70;20175;-81
2023/07/12 09:45:11;;;;;;;;;;;;;;;28.53;48.22;92842.25;2039167;70;20493;-80
2023/07/12 09:47:37;;;;;;;;;;;;;;;28.97;47.13;92843.50;2033308;70;20056;-81
2023/07/12 09:50:26;;;;;;;;;;;;;;;29.29;47.81;92836.06;2036313;70;20099;-80
2023/07/12 09:53:03;;;;;;;;;;;;;;;29.70;46.39;92824.16;2035415;70;20076;-80
2023/07/12 09:55:41;;;;;;;;;;;;;;;29.38;45.64;92841.06;2032233;70;20142;-81
2023/07/12 09:58:20;;;;;;;;;;;;;;;29.83;45.69;92831.28;2032335;70;20072;-80
2023/07/12 10:00:48;;;;;;;;;;;;;;;30.04;44.14;92814.38;2035408;70;20049;-79
2023/07/12 10:03:21;;;;;;;;;;;;;;;30.03;43.86;92801.34;2035861;70;20065;-79
2023/07/12 10:06:02;;;;;;;;;;;;;;;30.23;43.58;92797.50;2035986;70;20088;-79
2023/07/12 10:08:50;;;;;;;;;;;;;;;29.35;42.29;92798.31;2034955;70;20052;-81
2023/07/12 10:11:23;;;;;;;;;;;;;;;29.99;41.27;92807.19;2036101;70;20122;-80
2023/07/12 10:14:01;;;;;;;;;;;;;;;31.32;39.92;92809.16;2033207;70;20048;-87
2023/07/12 10:16:30;;;;;;;;;;;;;;;29.59;40.27;92809.72;2036329;70;20206;-85
2023/07/12 10:18:57;;;;;;;;;;;;;;;29.79;41.61;92805.94;2037070;70;20072;-86
2023/07/12 10:21:24;;;;;;;;;;;;;;;29.90;41.57;92808.72;2036689;70;20088;-81
2023/07/12 10:23:58;;;;;;;;;;;;;;;31.25;40.77;92810.69;2036318;70;20082;-80
2023/07/12 10:26:23;;;;;;;;;;;;;;;30.98;40.01;92805.28;2036172;70;20492;-81
2023/07/12 10:28:58;;;;;;;;;;;;;;;30.90;40.35;92799.59;2031907;70;20127;-80
2023/07/12 10:31:51;;;;;;;;;;;;;;;31.10;40.29;92799.28;2032169;70;20509;-81
2023/07/12 10:34:17;;;;;;;;;;;;;;;32.91;36.94;92794.63;2036213;70;20071;-80
2023/07/12 10:36:45;;;;;;;;;;;;;;;32.06;37.10;92791.19;2036001;70;20048;-80
2023/07/12 10:39:12;;;;;;;;;;;;;;;33.48;35.89;92792.59;2035889;70;20063;-79
2023/07/12 10:41:49;;;;;;;;;;;;;;;33.53;33.45;92794.66;2032609;70;20499;-79
2023/07/12 10:44:14;;;;;;;;;;;;;;;34.98;32.29;92796.66;2032622;70;20122;-79
2023/07/12 10:46:45;;;;;;;;;;;;;;;37.54;28.81;92803.97;2036285;70;20593;-79
2023/07/12 10:49:17;;;;;;;;;;;;;;;35.44;31.55;92801.84;2036094;70;20056;-80
2023/07/12 10:51:44;;;;;;;;;;;;;;;34.67;31.78;92804.88;2036325;70;20134;-79
2023/07/12 10:54:29;;;;;;;;;;;;;;;37.46;28.31;92797.72;2032815;70;20227;-79
2023/07/12 10:56:55;;;;;;;;;;;;;;;40.80;24.52;92796.47;2036142;70;20431;-79
2023/07/12 10:59:33;;;;;;;;;;;;;;;41.53;24.04;92797.72;2032781;70;20102;-81
2023/07/12 11:02:05;;;;;;;;;;;;;;;38.35;26.47;92784.50;2036165;70;20175;-81
2023/07/12 11:04:30;;;;;;;;;;;;;;;41.57;24.29;92777.53;2036028;70;20080;-81
2023/07/12 11:07:02;;;;;;;;;;;;;;;42.26;23.15;92784.00;2035602;70;20052;-82
2023/07/12 11:09:48;;;;;;;;;;;;;;;35.11;30.04;92750.94;2029938;70;20119;-81
2023/07/12 11:12:16;;;;;;;;;;;;;;;36.94;27.47;92752.03;2032727;70;20505;-83
2023/07/12 11:14:45;;;;;;;;;;;;;;;41.33;23.66;92764.81;2032835;70;20051;-81
2023/07/12 11:17:17;;;;;;;;;;;;;;;44.62;21.73;92777.25;2032631;70;20068;-82
2023/07/12 11:19:48;;;;;;;;;;;;;;;41.68;24.20;92771.03;2035637;70;20063;-82
2023/07/12 11:22:17;;;;;;;;;;;;;;;37.76;27.85;92763.47;2036390;70;20523;-80
2023/07/12 11:24:56;;;;;;;;;;;;;;;36.26;29.44;92761.81;2036072;70;20523;-81
2023/07/12 11:27:39;;;;;;;;;;;;;;;33.90;31.52;92762.34;2035735;70;20222;-81
2023/07/12 11:30:24;;;;;;;;;;;;;;;33.29;32.89;92760.22;2035718;70;20071;-81
2023/07/12 11:32:54;;;;;;;;;;;;;;;32.42;33.27;92768.69;2036372;70;20076;-81
2023/07/12 11:35:30;;;;;;;;;;;;;;;32.17;35.38;92771.34;2035806;70;20430;-80
2023/07/12 11:38:03;;;;;;;;;;;;;;;32.66;37.27;92771.06;2035732;70;20476;-81
2023/07/12 11:40:35;;;;;;;;;;;;;;;32.21;38.73;92765.41;2035574;70;20154;-81
2023/07/12 11:43:21;;;;;;;;;;;;;;;32.21;39.55;92753.78;2035812;70;20087;-82
2023/07/12 11:45:51;;;;;;;;;;;;;;;32.00;40.41;92765.13;2035759;70;20059;-82
2023/07/12 11:48:17;;;;;;;;;;;;;;;32.60;40.22;92747.91;2039285;70;20131;-81
2023/07/12 11:50:46;;;;;;;;;;;;;;;32.20;37.08;92726.84;2039399;70;20058;-83
2023/07/12 11:53:12;;;;;;;;;;;;;;;32.53;35.44;92705.78;2039399;70;20423;-82
2023/07/12 11:55:39;;;;;;;;;;;;;;;37.36;28.95;92708.53;2039431;70;20492;-82
2023/07/12 11:58:19;;;;;;;;;;;;;;;32.40;34.81;92701.75;2039496;70;20051;-81
2023/07/12 12:00:46;;;;;;;;;;;;;;;33.22;35.67;92703.50;2038706;70;20066;-81
2023/07/12 12:03:12;;;;;;;;;;;;;;;33.59;33.98;92709.19;2039147;70;20138;-82
2023/07/12 12:05:38;;;;;;;;;;;;;;;32.36;34.65;92696.69;2038905;70;20107;-82
2023/07/12 12:08:05;;;;;;;;;;;;;;;30.47;37.67;92706.44;2039206;70;20196;-82
2023/07/12 12:10:38;;;;;;;;;;;;;;;30.91;37.44;92705.09;2039148;70;20130;-82
2023/07/12 12:13:19;;;;;;;;;;;;;;;30.95;38.06;92710.16;2039167;70;20056;-82
2023/07/12 12:15:52;;;;;;;;;;;;;;;29.74;40.42;92705.91;2039309;70;20052;-81
2023/07/12 12:18:19;;;;;;;;;;;;;;;30.56;39.22;92701.97;2039535;70;20044;-82
2023/07/12 12:20:59;;;;;;;;;;;;;;;30.72;38.78;92675.63;2039627;70;20052;-82
2023/07/12 12:23:36;;;;;;;;;;;;;;;31.32;38.67;92676.09;2039646;70;20044;-82
2023/07/12 12:26:05;;;;;;;;;;;;;;;35.45;33.67;92681.06;2039743;70;20051;-81
2023/07/12 12:28:37;;;;;;;;;;;;;;;37.85;30.51;92661.78;2039591;70;20151;-82
2023/07/12 12:31:15;;;;;;;;;;;;;;;35.65;31.30;92670.91;2033552;70;20029;-83
2023/07/12 12:33:48;;;;;;;;;;;;;;;34.95;33.52;92663.66;2039801;70;20082;-82
2023/07/12 12:36:24;;;;;;;;;;;;;;;34.46;33.85;92655.69;2038918;70;20054;-82
2023/07/12 12:38:57;;;;;;;;;;;;;;;33.41;34.11;92639.59;2039572;70;20122;-82
2023/07/12 12:41:24;;;;;;;;;;;;;;;32.43;34.52;92639.03;2039441;70;20083;-83
2023/07/12 12:43:56;;;;;;;;;;;;;;;33.44;33.07;92638.06;2039276;70;20099;-82
2023/07/12 12:46:22;;;;;;;;;;;;;;;34.06;33.07;92620.34;2039134;70;20051;-82
2023/07/12 12:48:54;;;;;;;;;;;;;;;32.78;32.36;92621.47;2039583;70;20436;-81
2023/07/12 12:51:19;;;;;;;;;;;;;;;33.74;33.60;92624.88;2039452;70;20554;-82
2023/07/12 12:53:45;;;;;;;;;;;;;;;33.64;31.68;92614.19;2039455;70;20087;-84